sensor_id;sensor_type;location;lat;lon;timestamp;temperature;humidity
14014;DHT22;49110;52.584;13.408;2023-08-30T00:00:23;17.20;99.90
14014;DHT22;49110;52.584;13.408;2023-08-30T00:01:24;17.20;99.90
14014;DHT22;49110;52.584;13.408;2023-08-30T00:02:24;17.20;99.90
14014;DHT22;49110;52.584;13.408;2023-08-30T00:03:25;17.20;99.90
14014;DHT22;49110;52.584;13.408;2023-08-30T00:04:25;17.20;99.90
14014;DHT22;49110;52.584;13.408;2023-08-30T00:05:26;17.10;99.90
14014;DHT22;49110;52.584;13.408;2023-08-30T00:06:28;17.10;99.90
14014;DHT22;49110;52.584;13.408;2023-08-30T00:07:28;17.10;99.90
14014;DHT22;49110;52.584;13.408;2023-08-30T00:08:29;17.10;99.90
14014;DHT22;49110;52.584;13.408;2023-08-30T00:09:30;17.20;99.90
14014;DHT22;49110;52.584;13.408;2023-08-30T00:10:30;17.20;99.90
14014;DHT22;49110;52.584;13.408;2023-08-30T00:11:31;17.20;99.90
14014;DHT22;49110;52.584;13.408;2023-08-30T00:12:33;17.20;99.90
14014;DHT22;49110;52.584;13.408;2023-08-30T00:13:34;17.20;99.90
14014;DHT22;49110;52.584;13.408;2023-08-30T00:14:34;17.20;99.90
14014;DHT22;49110;52.584;13.408;2023-08-30T00:15:35;17.20;99.90
14014;DHT22;49110;52.584;13.408;2023-08-30T00:16:36;17.20;99.90
14014;DHT22;49110;52.584;13.408;2023-08-30T00:17:36;17.20;99.90
14014;DHT22;49110;52.584;13.408;2023-08-30T00:18:37;17.10;99.90
14014;DHT22;49110;52.584;13.408;2023-08-30T00:19:37;17.10;99.90
14014;DHT22;49110;52.584;13.408;2023-08-30T00:20:37;17.10;99.90
14014;DHT22;49110;52.584;13.408;2023-08-30T00:21:38;17.00;99.90
14014;DHT22;49110;52.584;13.408;2023-08-30T00:22:38;17.00;99.90
14014;DHT22;49110;52.584;13.408;2023-08-30T00:23:40;17.00;99.90
14014;DHT22;49110;52.584;13.408;2023-08-30T00:24:40;17.00;99.90
14014;DHT22;49110;52.584;13.408;2023-08-30T00:25:40;17.00;99.90
14014;DHT22;49110;52.584;13.408;2023-08-30T00:26:41;17.00;99.90
14014;DHT22;49110;52.584;13.408;2023-08-30T00:27:41;17.00;99.90
14014;DHT22;49110;52.584;13.408;2023-08-30T00:28:42;17.00;99.90
14014;DHT22;49110;52.584;13.408;2023-08-30T00:29:42;17.00;99.90
14014;DHT22;49110;52.584;13.408;2023-08-30T00:30:43;17.00;99.90
14014;DHT22;49110;52.584;13.408;2023-08-30T00:31:43;17.00;99.90
14014;DHT22;49110;52.584;13.408;2023-08-30T00:32:44;17.10;99.90
14014;DHT22;49110;52.584;13.408;2023-08-30T00:33:45;17.10;99.90
14014;DHT22;49110;52.584;13.408;2023-08-30T00:34:45;17.10;99.90
14014;DHT22;49110;52.584;13.408;2023-08-30T00:35:46;17.10;99.90
14014;DHT22;49110;52.584;13.408;2023-08-30T00:36:46;17.10;99.90
14014;DHT22;49110;52.584;13.408;2023-08-30T00:37:46;17.10;99.90
14014;DHT22;49110;52.584;13.408;2023-08-30T00:38:47;17.10;99.90
14014;DHT22;49110;52.584;13.408;2023-08-30T00:39:47;17.10;99.90
14014;DHT22;49110;52.584;13.408;2023-08-30T00:40:48;17.10;99.90
14014;DHT22;49110;52.584;13.408;2023-08-30T00:41:48;17.00;99.90
14014;DHT22;49110;52.584;13.408;2023-08-30T00:42:49;17.00;99.90
14014;DHT22;49110;52.584;13.408;2023-08-30T00:43:49;17.00;99.90
14014;DHT22;49110;52.584;13.408;2023-08-30T00:44:50;17.00;99.90
14014;DHT22;49110;52.584;13.408;2023-08-30T00:45:51;17.00;99.90
14014;DHT22;49110;52.584;13.408;2023-08-30T00:46:51;17.10;99.90
14014;DHT22;49110;52.584;13.408;2023-08-30T00:47:52;17.10;99.90
14014;DHT22;49110;52.584;13.408;2023-08-30T00:48:53;17.10;99.90
14014;DHT22;49110;52.584;13.408;2023-08-30T00:49:53;17.10;99.90
14014;DHT22;49110;52.584;13.408;2023-08-30T00:50:54;17.20;99.90
14014;DHT22;49110;52.584;13.408;2023-08-30T00:51:54;17.20;99.90
14014;DHT22;49110;52.584;13.408;2023-08-30T00:52:55;17.20;99.90
14014;DHT22;49110;52.584;13.408;2023-08-30T00:53:56;17.20;99.90
14014;DHT22;49110;52.584;13.408;2023-08-30T00:54:57;17.20;99.90
14014;DHT22;49110;52.584;13.408;2023-08-30T00:55:57;17.20;99.90
14014;DHT22;49110;52.584;13.408;2023-08-30T00:56:58;17.10;99.90
14014;DHT22;49110;52.584;13.408;2023-08-30T00:58:01;17.10;99.90
14014;DHT22;49110;52.584;13.408;2023-08-30T00:59:02;17.10;99.90
14014;DHT22;49110;52.584;13.408;2023-08-30T01:00:03;17.00;99.90
14014;DHT22;49110;52.584;13.408;2023-08-30T01:01:05;17.00;99.90
14014;DHT22;49110;52.584;13.408;2023-08-30T01:02:08;17.00;99.90
14014;DHT22;49110;52.584;13.408;2023-08-30T01:03:09;17.10;99.90
14014;DHT22;49110;52.584;13.408;2023-08-30T01:04:10;17.10;99.90
14014;DHT22;49110;52.584;13.408;2023-08-30T01:05:10;17.10;99.90
14014;DHT22;49110;52.584;13.408;2023-08-30T01:06:11;17.10;99.90
14014;DHT22;49110;52.584;13.408;2023-08-30T01:07:11;17.10;99.90
14014;DHT22;49110;52.584;13.408;2023-08-30T01:08:12;17.10;99.90
14014;DHT22;49110;52.584;13.408;2023-08-30T01:09:12;17.20;99.90
14014;DHT22;49110;52.584;13.408;2023-08-30T01:10:13;17.10;99.90
14014;DHT22;49110;52.584;13.408;2023-08-30T01:11:24;17.10;99.90
14014;DHT22;49110;52.584;13.408;2023-08-30T01:12:37;17.10;99.90
14014;DHT22;49110;52.584;13.408;2023-08-30T01:13:51;17.10;99.90
14014;DHT22;49110;52.584;13.408;2023-08-30T01:14:59;17.20;99.90
14014;DHT22;49110;52.584;13.408;2023-08-30T01:16:01;17.20;99.90
14014;DHT22;49110;52.584;13.408;2023-08-30T01:17:04;17.10;99.90
14014;DHT22;49110;52.584;13.408;2023-08-30T01:18:06;17.10;99.90
14014;DHT22;49110;52.584;13.408;2023-08-30T01:19:38;17.10;99.90
14014;DHT22;49110;52.584;13.408;2023-08-30T01:20:43;17.00;99.90
14014;DHT22;49110;52.584;13.408;2023-08-30T01:22:03;17.00;99.90
14014;DHT22;49110;52.584;13.408;2023-08-30T01:23:07;17.00;99.90
14014;DHT22;49110;52.584;13.408;2023-08-30T01:24:14;17.10;99.90
14014;DHT22;49110;52.584;13.408;2023-08-30T01:27:07;17.10;99.90
14014;DHT22;49110;52.584;13.408;2023-08-30T01:28:08;17.10;99.90
14014;DHT22;49110;52.584;13.408;2023-08-30T01:29:11;17.10;99.90
14014;DHT22;49110;52.584;13.408;2023-08-30T01:30:13;17.10;99.90
14014;DHT22;49110;52.584;13.408;2023-08-30T01:31:15;17.10;99.90
14014;DHT22;49110;52.584;13.408;2023-08-30T01:32:16;17.10;99.90
14014;DHT22;49110;52.584;13.408;2023-08-30T01:33:18;17.10;99.90
14014;DHT22;49110;52.584;13.408;2023-08-30T01:34:20;17.10;99.90
14014;DHT22;49110;52.584;13.408;2023-08-30T01:35:22;17.10;99.90
14014;DHT22;49110;52.584;13.408;2023-08-30T01:36:23;17.20;99.90
14014;DHT22;49110;52.584;13.408;2023-08-30T01:37:24;17.20;99.90
14014;DHT22;49110;52.584;13.408;2023-08-30T01:38:27;17.10;99.90
14014;DHT22;49110;52.584;13.408;2023-08-30T01:39:29;17.20;99.90
14014;DHT22;49110;52.584;13.408;2023-08-30T01:40:33;17.20;99.90
14014;DHT22;49110;52.584;13.408;2023-08-30T01:41:35;17.20;99.90
14014;DHT22;49110;52.584;13.408;2023-08-30T01:42:36;17.20;99.90
14014;DHT22;49110;52.584;13.408;2023-08-30T01:43:37;17.20;99.90
14014;DHT22;49110;52.584;13.408;2023-08-30T01:44:38;17.20;99.90
14014;DHT22;49110;52.584;13.408;2023-08-30T01:45:44;17.10;99.90
14014;DHT22;49110;52.584;13.408;2023-08-30T01:46:45;17.10;99.90
14014;DHT22;49110;52.584;13.408;2023-08-30T01:47:46;17.00;99.90
14014;DHT22;49110;52.584;13.408;2023-08-30T01:48:50;17.10;99.90
14014;DHT22;49110;52.584;13.408;2023-08-30T01:49:52;17.10;99.90
14014;DHT22;49110;52.584;13.408;2023-08-30T01:50:53;17.10;99.90
14014;DHT22;49110;52.584;13.408;2023-08-30T01:51:59;17.10;99.90
14014;DHT22;49110;52.584;13.408;2023-08-30T01:53:00;17.00;99.90
14014;DHT22;49110;52.584;13.408;2023-08-30T01:54:02;17.10;99.90
14014;DHT22;49110;52.584;13.408;2023-08-30T01:55:04;16.90;99.90
14014;DHT22;49110;52.584;13.408;2023-08-30T01:56:06;16.90;99.90
14014;DHT22;49110;52.584;13.408;2023-08-30T01:57:06;16.90;99.90
14014;DHT22;49110;52.584;13.408;2023-08-30T01:58:07;16.90;99.90
14014;DHT22;49110;52.584;13.408;2023-08-30T01:59:08;16.80;99.90
14014;DHT22;49110;52.584;13.408;2023-08-30T02:00:09;16.90;99.90
14014;DHT22;49110;52.584;13.408;2023-08-30T02:01:10;16.80;99.90
14014;DHT22;49110;52.584;13.408;2023-08-30T02:02:10;16.80;99.90
14014;DHT22;49110;52.584;13.408;2023-08-30T02:03:12;16.90;99.90
14014;DHT22;49110;52.584;13.408;2023-08-30T02:04:12;16.80;99.90
14014;DHT22;49110;52.584;13.408;2023-08-30T02:05:13;16.70;99.90
14014;DHT22;49110;52.584;13.408;2023-08-30T02:06:20;16.80;99.90
14014;DHT22;49110;52.584;13.408;2023-08-30T02:07:38;16.80;99.90
14014;DHT22;49110;52.584;13.408;2023-08-30T02:09:09;16.80;99.90
14014;DHT22;49110;52.584;13.408;2023-08-30T02:10:16;16.90;99.90
14014;DHT22;49110;52.584;13.408;2023-08-30T02:11:24;16.90;99.90
14014;DHT22;49110;52.584;13.408;2023-08-30T02:12:34;16.80;99.90
14014;DHT22;49110;52.584;13.408;2023-08-30T02:13:35;16.90;99.90
14014;DHT22;49110;52.584;13.408;2023-08-30T02:14:38;16.90;99.90
14014;DHT22;49110;52.584;13.408;2023-08-30T02:15:41;16.90;99.90
14014;DHT22;49110;52.584;13.408;2023-08-30T02:16:45;16.90;99.90
14014;DHT22;49110;52.584;13.408;2023-08-30T02:17:46;16.90;99.90
14014;DHT22;49110;52.584;13.408;2023-08-30T02:18:49;16.90;99.90
14014;DHT22;49110;52.584;13.408;2023-08-30T02:19:50;16.90;99.90
14014;DHT22;49110;52.584;13.408;2023-08-30T02:20:53;16.90;99.90
14014;DHT22;49110;52.584;13.408;2023-08-30T02:21:56;16.80;99.90
14014;DHT22;49110;52.584;13.408;2023-08-30T02:22:59;16.80;99.90
14014;DHT22;49110;52.584;13.408;2023-08-30T02:24:00;16.80;99.90
14014;DHT22;49110;52.584;13.408;2023-08-30T02:25:01;16.80;99.90
14014;DHT22;49110;52.584;13.408;2023-08-30T02:26:04;16.80;99.90
14014;DHT22;49110;52.584;13.408;2023-08-30T02:27:05;16.80;99.90
14014;DHT22;49110;52.584;13.408;2023-08-30T02:28:06;16.80;99.90
14014;DHT22;49110;52.584;13.408;2023-08-30T02:29:06;16.80;99.90
14014;DHT22;49110;52.584;13.408;2023-08-30T02:30:08;16.80;99.90
14014;DHT22;49110;52.584;13.408;2023-08-30T02:31:09;16.80;99.90
14014;DHT22;49110;52.584;13.408;2023-08-30T02:32:09;16.70;99.90
14014;DHT22;49110;52.584;13.408;2023-08-30T02:33:10;16.70;99.90
14014;DHT22;49110;52.584;13.408;2023-08-30T02:34:10;16.80;99.90
14014;DHT22;49110;52.584;13.408;2023-08-30T02:35:11;16.80;99.90
14014;DHT22;49110;52.584;13.408;2023-08-30T02:36:11;16.70;99.90
14014;DHT22;49110;52.584;13.408;2023-08-30T02:37:11;16.70;99.90
14014;DHT22;49110;52.584;13.408;2023-08-30T02:38:12;16.60;99.90
14014;DHT22;49110;52.584;13.408;2023-08-30T02:39:14;16.60;99.90
14014;DHT22;49110;52.584;13.408;2023-08-30T02:40:15;16.70;99.90
14014;DHT22;49110;52.584;13.408;2023-08-30T02:41:16;16.70;99.90
14014;DHT22;49110;52.584;13.408;2023-08-30T02:42:16;16.70;99.90
14014;DHT22;49110;52.584;13.408;2023-08-30T02:43:17;16.70;99.90
14014;DHT22;49110;52.584;13.408;2023-08-30T02:44:17;16.70;99.90
14014;DHT22;49110;52.584;13.408;2023-08-30T02:45:18;16.70;99.90
14014;DHT22;49110;52.584;13.408;2023-08-30T02:46:18;16.70;99.90
14014;DHT22;49110;52.584;13.408;2023-08-30T02:47:19;16.70;99.90
14014;DHT22;49110;52.584;13.408;2023-08-30T02:48:20;16.70;99.90
14014;DHT22;49110;52.584;13.408;2023-08-30T02:49:20;16.70;99.90
14014;DHT22;49110;52.584;13.408;2023-08-30T02:50:21;16.70;99.90
14014;DHT22;49110;52.584;13.408;2023-08-30T02:51:21;16.70;99.90
14014;DHT22;49110;52.584;13.408;2023-08-30T02:52:22;16.70;99.90
14014;DHT22;49110;52.584;13.408;2023-08-30T02:53:22;16.70;99.90
14014;DHT22;49110;52.584;13.408;2023-08-30T02:54:23;16.70;99.90
14014;DHT22;49110;52.584;13.408;2023-08-30T02:55:23;16.70;99.90
14014;DHT22;49110;52.584;13.408;2023-08-30T02:56:24;16.70;99.90
14014;DHT22;49110;52.584;13.408;2023-08-30T02:57:25;16.70;99.90
14014;DHT22;49110;52.584;13.408;2023-08-30T02:58:26;16.70;99.90
14014;DHT22;49110;52.584;13.408;2023-08-30T02:59:26;16.70;99.90
14014;DHT22;49110;52.584;13.408;2023-08-30T03:00:27;16.70;99.90
14014;DHT22;49110;52.584;13.408;2023-08-30T03:01:27;16.80;99.90
14014;DHT22;49110;52.584;13.408;2023-08-30T03:02:28;16.70;99.90
14014;DHT22;49110;52.584;13.408;2023-08-30T03:03:29;16.80;99.90
14014;DHT22;49110;52.584;13.408;2023-08-30T03:04:29;16.70;99.90
14014;DHT22;49110;52.584;13.408;2023-08-30T03:05:29;16.70;99.90
14014;DHT22;49110;52.584;13.408;2023-08-30T03:06:30;16.70;99.90
14014;DHT22;49110;52.584;13.408;2023-08-30T03:07:32;16.60;99.90
14014;DHT22;49110;52.584;13.408;2023-08-30T03:08:32;16.60;99.90
14014;DHT22;49110;52.584;13.408;2023-08-30T03:09:33;16.50;99.90
14014;DHT22;49110;52.584;13.408;2023-08-30T03:10:33;16.40;99.90
14014;DHT22;49110;52.584;13.408;2023-08-30T03:11:34;16.40;99.90
14014;DHT22;49110;52.584;13.408;2023-08-30T03:12:34;16.40;99.90
14014;DHT22;49110;52.584;13.408;2023-08-30T03:13:34;16.40;99.90
14014;DHT22;49110;52.584;13.408;2023-08-30T03:14:35;16.50;99.90
14014;DHT22;49110;52.584;13.408;2023-08-30T03:15:35;16.40;99.90
14014;DHT22;49110;52.584;13.408;2023-08-30T03:16:36;16.40;99.90
14014;DHT22;49110;52.584;13.408;2023-08-30T03:17:36;16.50;99.90
14014;DHT22;49110;52.584;13.408;2023-08-30T03:18:38;16.40;99.90
14014;DHT22;49110;52.584;13.408;2023-08-30T03:19:38;16.40;99.90
14014;DHT22;49110;52.584;13.408;2023-08-30T03:20:39;16.30;99.90
14014;DHT22;49110;52.584;13.408;2023-08-30T03:21:39;16.30;99.90
14014;DHT22;49110;52.584;13.408;2023-08-30T03:22:40;16.30;99.90
14014;DHT22;49110;52.584;13.408;2023-08-30T03:23:41;16.30;99.90
14014;DHT22;49110;52.584;13.408;2023-08-30T03:24:41;16.30;99.90
14014;DHT22;49110;52.584;13.408;2023-08-30T03:25:42;16.30;99.90
14014;DHT22;49110;52.584;13.408;2023-08-30T03:26:43;16.30;99.90
14014;DHT22;49110;52.584;13.408;2023-08-30T03:27:44;16.40;99.90
14014;DHT22;49110;52.584;13.408;2023-08-30T03:28:44;16.40;99.90
14014;DHT22;49110;52.584;13.408;2023-08-30T03:29:45;16.40;99.90
14014;DHT22;49110;52.584;13.408;2023-08-30T03:30:46;16.40;99.90
14014;DHT22;49110;52.584;13.408;2023-08-30T03:31:47;16.40;99.90
14014;DHT22;49110;52.584;13.408;2023-08-30T03:32:47;16.30;99.90
14014;DHT22;49110;52.584;13.408;2023-08-30T03:33:48;16.30;99.90
14014;DHT22;49110;52.584;13.408;2023-08-30T03:34:49;16.20;99.90
14014;DHT22;49110;52.584;13.408;2023-08-30T03:35:49;16.20;99.90
14014;DHT22;49110;52.584;13.408;2023-08-30T03:36:50;16.20;99.90
14014;DHT22;49110;52.584;13.408;2023-08-30T03:37:54;16.20;99.90
14014;DHT22;49110;52.584;13.408;2023-08-30T03:38:54;16.20;99.90
14014;DHT22;49110;52.584;13.408;2023-08-30T03:39:55;16.20;99.90
14014;DHT22;49110;52.584;13.408;2023-08-30T03:40:55;16.20;99.90
14014;DHT22;49110;52.584;13.408;2023-08-30T03:41:56;16.20;99.90
14014;DHT22;49110;52.584;13.408;2023-08-30T03:42:56;16.30;99.90
14014;DHT22;49110;52.584;13.408;2023-08-30T03:43:57;16.20;99.90
14014;DHT22;49110;52.584;13.408;2023-08-30T03:44:57;16.20;99.90
14014;DHT22;49110;52.584;13.408;2023-08-30T03:45:59;16.20;99.90
14014;DHT22;49110;52.584;13.408;2023-08-30T03:47:00;16.20;99.90
14014;DHT22;49110;52.584;13.408;2023-08-30T03:48:01;16.20;99.90
14014;DHT22;49110;52.584;13.408;2023-08-30T03:49:01;16.20;99.90
14014;DHT22;49110;52.584;13.408;2023-08-30T03:50:02;16.20;99.90
14014;DHT22;49110;52.584;13.408;2023-08-30T03:51:02;16.30;99.90
14014;DHT22;49110;52.584;13.408;2023-08-30T03:52:03;16.20;99.90
14014;DHT22;49110;52.584;13.408;2023-08-30T03:53:03;16.20;99.90
14014;DHT22;49110;52.584;13.408;2023-08-30T03:54:04;16.20;99.90
14014;DHT22;49110;52.584;13.408;2023-08-30T03:55:04;16.30;99.90
14014;DHT22;49110;52.584;13.408;2023-08-30T03:56:05;16.30;99.90
14014;DHT22;49110;52.584;13.408;2023-08-30T03:57:05;16.20;99.90
14014;DHT22;49110;52.584;13.408;2023-08-30T03:58:06;16.30;99.90
14014;DHT22;49110;52.584;13.408;2023-08-30T03:59:06;16.30;99.90
14014;DHT22;49110;52.584;13.408;2023-08-30T04:00:08;16.40;99.90
14014;DHT22;49110;52.584;13.408;2023-08-30T04:01:09;16.40;99.90
14014;DHT22;49110;52.584;13.408;2023-08-30T04:02:09;16.30;99.90
14014;DHT22;49110;52.584;13.408;2023-08-30T04:03:10;16.40;99.90
14014;DHT22;49110;52.584;13.408;2023-08-30T04:04:10;16.30;99.90
14014;DHT22;49110;52.584;13.408;2023-08-30T04:05:11;16.30;99.90
14014;DHT22;49110;52.584;13.408;2023-08-30T04:06:12;16.30;99.90
14014;DHT22;49110;52.584;13.408;2023-08-30T04:07:12;16.30;99.90
14014;DHT22;49110;52.584;13.408;2023-08-30T04:08:13;16.30;99.90
14014;DHT22;49110;52.584;13.408;2023-08-30T04:09:13;16.30;99.90
14014;DHT22;49110;52.584;13.408;2023-08-30T04:10:13;16.30;99.90
14014;DHT22;49110;52.584;13.408;2023-08-30T04:11:14;16.30;99.90
14014;DHT22;49110;52.584;13.408;2023-08-30T04:12:14;16.30;99.90
14014;DHT22;49110;52.584;13.408;2023-08-30T04:13:15;16.30;99.90
14014;DHT22;49110;52.584;13.408;2023-08-30T04:14:15;16.30;99.90
14014;DHT22;49110;52.584;13.408;2023-08-30T04:15:16;16.30;99.90
14014;DHT22;49110;52.584;13.408;2023-08-30T04:16:16;16.30;99.90
14014;DHT22;49110;52.584;13.408;2023-08-30T04:17:17;16.30;99.90
14014;DHT22;49110;52.584;13.408;2023-08-30T04:18:17;16.30;99.90
14014;DHT22;49110;52.584;13.408;2023-08-30T04:19:18;16.30;99.90
14014;DHT22;49110;52.584;13.408;2023-08-30T04:20:18;16.30;99.90
14014;DHT22;49110;52.584;13.408;2023-08-30T04:21:19;16.30;99.90
14014;DHT22;49110;52.584;13.408;2023-08-30T04:22:19;16.30;99.90
14014;DHT22;49110;52.584;13.408;2023-08-30T04:23:20;16.30;99.90
14014;DHT22;49110;52.584;13.408;2023-08-30T04:24:20;16.30;99.90
14014;DHT22;49110;52.584;13.408;2023-08-30T04:25:21;16.30;99.90
14014;DHT22;49110;52.584;13.408;2023-08-30T04:26:21;16.40;99.90
14014;DHT22;49110;52.584;13.408;2023-08-30T04:27:22;16.40;99.90
14014;DHT22;49110;52.584;13.408;2023-08-30T04:28:22;16.40;99.90
14014;DHT22;49110;52.584;13.408;2023-08-30T04:29:22;16.40;99.90
14014;DHT22;49110;52.584;13.408;2023-08-30T04:30:23;16.40;99.90
14014;DHT22;49110;52.584;13.408;2023-08-30T04:31:23;16.50;99.90
14014;DHT22;49110;52.584;13.408;2023-08-30T04:32:24;16.40;99.90
14014;DHT22;49110;52.584;13.408;2023-08-30T04:33:25;16.40;99.90
14014;DHT22;49110;52.584;13.408;2023-08-30T04:34:26;16.40;99.90
14014;DHT22;49110;52.584;13.408;2023-08-30T04:35:26;16.40;99.90
14014;DHT22;49110;52.584;13.408;2023-08-30T04:36:27;16.40;99.90
14014;DHT22;49110;52.584;13.408;2023-08-30T04:37:30;16.30;99.90
14014;DHT22;49110;52.584;13.408;2023-08-30T04:38:31;16.30;99.90
14014;DHT22;49110;52.584;13.408;2023-08-30T04:39:32;16.40;99.90
14014;DHT22;49110;52.584;13.408;2023-08-30T04:40:32;16.30;99.90
14014;DHT22;49110;52.584;13.408;2023-08-30T04:41:33;16.40;99.90
14014;DHT22;49110;52.584;13.408;2023-08-30T04:42:34;16.30;99.90
14014;DHT22;49110;52.584;13.408;2023-08-30T04:43:34;16.40;99.90
14014;DHT22;49110;52.584;13.408;2023-08-30T04:44:35;16.40;99.90
14014;DHT22;49110;52.584;13.408;2023-08-30T04:45:35;16.30;99.90
14014;DHT22;49110;52.584;13.408;2023-08-30T04:46:36;16.40;99.90
14014;DHT22;49110;52.584;13.408;2023-08-30T04:47:36;16.40;99.90
14014;DHT22;49110;52.584;13.408;2023-08-30T04:48:37;16.40;99.90
14014;DHT22;49110;52.584;13.408;2023-08-30T04:49:37;16.40;99.90
14014;DHT22;49110;52.584;13.408;2023-08-30T04:50:38;16.40;99.90
14014;DHT22;49110;52.584;13.408;2023-08-30T04:51:38;16.40;99.90
14014;DHT22;49110;52.584;13.408;2023-08-30T04:52:39;16.30;99.90
14014;DHT22;49110;52.584;13.408;2023-08-30T04:53:39;16.30;99.90
14014;DHT22;49110;52.584;13.408;2023-08-30T04:54:41;16.30;99.90
14014;DHT22;49110;52.584;13.408;2023-08-30T04:55:43;16.40;99.90
14014;DHT22;49110;52.584;13.408;2023-08-30T04:56:43;16.40;99.90
14014;DHT22;49110;52.584;13.408;2023-08-30T04:57:44;16.50;99.90
14014;DHT22;49110;52.584;13.408;2023-08-30T04:58:45;16.40;99.90
14014;DHT22;49110;52.584;13.408;2023-08-30T04:59:46;16.40;99.90
14014;DHT22;49110;52.584;13.408;2023-08-30T05:00:46;16.50;99.90
14014;DHT22;49110;52.584;13.408;2023-08-30T05:01:47;16.50;99.90
14014;DHT22;49110;52.584;13.408;2023-08-30T05:02:47;16.60;99.90
14014;DHT22;49110;52.584;13.408;2023-08-30T05:03:48;16.60;99.90
14014;DHT22;49110;52.584;13.408;2023-08-30T05:04:48;16.60;99.90
14014;DHT22;49110;52.584;13.408;2023-08-30T05:05:49;16.50;99.90
14014;DHT22;49110;52.584;13.408;2023-08-30T05:06:49;16.50;99.90
14014;DHT22;49110;52.584;13.408;2023-08-30T05:07:50;16.50;99.90
14014;DHT22;49110;52.584;13.408;2023-08-30T05:08:50;16.50;99.90
14014;DHT22;49110;52.584;13.408;2023-08-30T05:09:51;16.50;99.90
14014;DHT22;49110;52.584;13.408;2023-08-30T05:10:55;16.50;99.90
14014;DHT22;49110;52.584;13.408;2023-08-30T05:11:56;16.60;99.90
14014;DHT22;49110;52.584;13.408;2023-08-30T05:12:56;16.60;99.90
14014;DHT22;49110;52.584;13.408;2023-08-30T05:13:57;16.60;99.90
14014;DHT22;49110;52.584;13.408;2023-08-30T05:14:57;16.60;99.90
14014;DHT22;49110;52.584;13.408;2023-08-30T05:15:58;16.60;99.90
14014;DHT22;49110;52.584;13.408;2023-08-30T05:16:58;16.70;99.90
14014;DHT22;49110;52.584;13.408;2023-08-30T05:17:59;16.70;99.90
14014;DHT22;49110;52.584;13.408;2023-08-30T05:18:59;16.70;99.90
14014;DHT22;49110;52.584;13.408;2023-08-30T05:20:00;16.80;99.90
14014;DHT22;49110;52.584;13.408;2023-08-30T05:21:00;16.80;99.90
14014;DHT22;49110;52.584;13.408;2023-08-30T05:22:03;16.80;99.90
14014;DHT22;49110;52.584;13.408;2023-08-30T05:23:04;16.80;99.90
14014;DHT22;49110;52.584;13.408;2023-08-30T05:24:05;16.90;99.90
14014;DHT22;49110;52.584;13.408;2023-08-30T05:25:07;16.80;99.90
14014;DHT22;49110;52.584;13.408;2023-08-30T05:26:10;16.90;99.90
14014;DHT22;49110;52.584;13.408;2023-08-30T05:27:10;16.80;99.90
14014;DHT22;49110;52.584;13.408;2023-08-30T05:28:12;16.90;99.90
14014;DHT22;49110;52.584;13.408;2023-08-30T05:29:16;16.90;99.90
14014;DHT22;49110;52.584;13.408;2023-08-30T05:30:16;16.90;99.90
14014;DHT22;49110;52.584;13.408;2023-08-30T05:31:17;16.90;99.90
14014;DHT22;49110;52.584;13.408;2023-08-30T05:32:17;16.90;99.90
14014;DHT22;49110;52.584;13.408;2023-08-30T05:33:17;17.00;99.90
14014;DHT22;49110;52.584;13.408;2023-08-30T05:34:18;17.00;99.90
14014;DHT22;49110;52.584;13.408;2023-08-30T05:35:18;17.10;99.90
14014;DHT22;49110;52.584;13.408;2023-08-30T05:36:19;17.10;99.90
14014;DHT22;49110;52.584;13.408;2023-08-30T05:37:19;17.00;99.90
14014;DHT22;49110;52.584;13.408;2023-08-30T05:38:20;17.10;99.90
14014;DHT22;49110;52.584;13.408;2023-08-30T05:39:20;17.00;99.90
14014;DHT22;49110;52.584;13.408;2023-08-30T05:40:21;17.10;99.90
14014;DHT22;49110;52.584;13.408;2023-08-30T05:41:21;17.10;99.90
14014;DHT22;49110;52.584;13.408;2023-08-30T05:42:22;17.00;99.90
14014;DHT22;49110;52.584;13.408;2023-08-30T05:43:22;17.10;99.90
14014;DHT22;49110;52.584;13.408;2023-08-30T05:44:23;17.10;99.90
14014;DHT22;49110;52.584;13.408;2023-08-30T05:45:23;17.10;99.90
14014;DHT22;49110;52.584;13.408;2023-08-30T05:46:23;17.10;99.90
14014;DHT22;49110;52.584;13.408;2023-08-30T05:47:24;17.10;99.90
14014;DHT22;49110;52.584;13.408;2023-08-30T05:48:24;17.10;99.90
14014;DHT22;49110;52.584;13.408;2023-08-30T05:49:25;17.10;99.90
14014;DHT22;49110;52.584;13.408;2023-08-30T05:50:25;17.10;99.90
14014;DHT22;49110;52.584;13.408;2023-08-30T05:51:26;17.10;99.90
14014;DHT22;49110;52.584;13.408;2023-08-30T05:52:26;17.00;99.90
14014;DHT22;49110;52.584;13.408;2023-08-30T05:53:27;17.00;99.90
14014;DHT22;49110;52.584;13.408;2023-08-30T05:54:27;17.00;99.90
14014;DHT22;49110;52.584;13.408;2023-08-30T05:55:29;17.00;99.90
14014;DHT22;49110;52.584;13.408;2023-08-30T05:56:30;17.00;99.90
14014;DHT22;49110;52.584;13.408;2023-08-30T05:57:30;17.10;99.90
14014;DHT22;49110;52.584;13.408;2023-08-30T05:58:33;17.10;99.90
14014;DHT22;49110;52.584;13.408;2023-08-30T05:59:34;17.10;99.90
14014;DHT22;49110;52.584;13.408;2023-08-30T06:00:35;17.00;99.90
14014;DHT22;49110;52.584;13.408;2023-08-30T06:01:36;17.00;99.90
14014;DHT22;49110;52.584;13.408;2023-08-30T06:02:36;17.00;99.90
14014;DHT22;49110;52.584;13.408;2023-08-30T06:03:37;17.00;99.90
14014;DHT22;49110;52.584;13.408;2023-08-30T06:04:37;17.00;99.90
14014;DHT22;49110;52.584;13.408;2023-08-30T06:05:37;17.00;99.90
14014;DHT22;49110;52.584;13.408;2023-08-30T06:06:38;17.00;99.90
14014;DHT22;49110;52.584;13.408;2023-08-30T06:07:39;17.10;99.90
14014;DHT22;49110;52.584;13.408;2023-08-30T06:08:39;17.10;99.90
14014;DHT22;49110;52.584;13.408;2023-08-30T06:09:40;17.10;99.90
14014;DHT22;49110;52.584;13.408;2023-08-30T06:10:40;17.20;99.90
14014;DHT22;49110;52.584;13.408;2023-08-30T06:11:41;17.20;99.90
14014;DHT22;49110;52.584;13.408;2023-08-30T06:12:42;17.20;99.90
14014;DHT22;49110;52.584;13.408;2023-08-30T06:13:42;17.20;99.90
14014;DHT22;49110;52.584;13.408;2023-08-30T06:14:43;17.30;99.90
14014;DHT22;49110;52.584;13.408;2023-08-30T06:15:51;17.30;99.90
14014;DHT22;49110;52.584;13.408;2023-08-30T06:16:51;17.30;99.90
14014;DHT22;49110;52.584;13.408;2023-08-30T06:17:52;17.30;99.90
14014;DHT22;49110;52.584;13.408;2023-08-30T06:18:54;17.30;99.90
14014;DHT22;49110;52.584;13.408;2023-08-30T06:19:54;17.40;99.90
14014;DHT22;49110;52.584;13.408;2023-08-30T06:20:55;17.30;99.90
14014;DHT22;49110;52.584;13.408;2023-08-30T06:21:55;17.40;99.90
14014;DHT22;49110;52.584;13.408;2023-08-30T06:22:57;17.40;99.90